sensor_id;sensor_type;location;lat;lon;timestamp;P1;durP1;ratioP1;P2;durP2;ratioP2
41456;SDS011;27197;51.752;5.220;2022-10-31T00:01:38;7.67;;;5.50;;
41456;SDS011;27197;51.752;5.220;2022-10-31T00:04:04;7.58;;;4.72;;
41456;SDS011;27197;51.752;5.220;2022-10-31T00:06:33;11.03;;;5.25;;
41456;SDS011;27197;51.752;5.220;2022-10-31T00:09:03;9.78;;;5.35;;
41456;SDS011;27197;51.752;5.220;2022-10-31T00:11:35;8.60;;;5.62;;
41456;SDS011;27197;51.752;5.220;2022-10-31T00:14:03;11.05;;;5.72;;
41456;SDS011;27197;51.752;5.220;2022-10-31T00:16:34;9.78;;;5.90;;
41456;SDS011;27197;51.752;5.220;2022-10-31T00:19:03;10.08;;;5.80;;
41456;SDS011;27197;51.752;5.220;2022-10-31T00:21:33;11.05;;;6.75;;
41456;SDS011;27197;51.752;5.220;2022-10-31T00:24:02;10.78;;;6.55;;
41456;SDS011;27197;51.752;5.220;2022-10-31T00:26:31;13.30;;;6.40;;
41456;SDS011;27197;51.752;5.220;2022-10-31T00:29:01;9.55;;;5.78;;
41456;SDS011;27197;51.752;5.220;2022-10-31T00:31:29;9.63;;;5.35;;
41456;SDS011;27197;51.752;5.220;2022-10-31T00:33:58;8.23;;;6.00;;
41456;SDS011;27197;51.752;5.220;2022-10-31T00:36:27;11.80;;;6.42;;
41456;SDS011;27197;51.752;5.220;2022-10-31T00:38:59;9.68;;;6.50;;
41456;SDS011;27197;51.752;5.220;2022-10-31T00:41:27;8.93;;;5.70;;
41456;SDS011;27197;51.752;5.220;2022-10-31T00:43:56;9.78;;;5.87;;
41456;SDS011;27197;51.752;5.220;2022-10-31T00:46:25;11.05;;;6.22;;
41456;SDS011;27197;51.752;5.220;2022-10-31T00:48:55;8.28;;;4.95;;
41456;SDS011;27197;51.752;5.220;2022-10-31T00:51:24;10.03;;;6.33;;
41456;SDS011;27197;51.752;5.220;2022-10-31T00:53:51;11.73;;;7.30;;
41456;SDS011;27197;51.752;5.220;2022-10-31T00:56:21;11.70;;;6.75;;
41456;SDS011;27197;51.752;5.220;2022-10-31T00:58:51;8.00;;;5.95;;
41456;SDS011;27197;51.752;5.220;2022-10-31T01:01:21;9.88;;;6.60;;
41456;SDS011;27197;51.752;5.220;2022-10-31T01:03:50;7.72;;;4.78;;
41456;SDS011;27197;51.752;5.220;2022-10-31T01:06:19;7.05;;;5.17;;
41456;SDS011;27197;51.752;5.220;2022-10-31T01:08:48;9.43;;;6.45;;
41456;SDS011;27197;51.752;5.220;2022-10-31T01:11:18;8.80;;;5.28;;
41456;SDS011;27197;51.752;5.220;2022-10-31T01:13:53;10.48;;;6.62;;
41456;SDS011;27197;51.752;5.220;2022-10-31T01:16:23;10.45;;;6.67;;
41456;SDS011;27197;51.752;5.220;2022-10-31T01:18:55;8.75;;;4.97;;
41456;SDS011;27197;51.752;5.220;2022-10-31T01:21:25;7.33;;;4.50;;
41456;SDS011;27197;51.752;5.220;2022-10-31T01:23:59;16.90;;;7.50;;
41456;SDS011;27197;51.752;5.220;2022-10-31T01:26:28;9.90;;;6.37;;
41456;SDS011;27197;51.752;5.220;2022-10-31T01:28:58;10.48;;;7.58;;
41456;SDS011;27197;51.752;5.220;2022-10-31T01:31:28;12.28;;;7.37;;
41456;SDS011;27197;51.752;5.220;2022-10-31T01:33:57;9.10;;;5.60;;
41456;SDS011;27197;51.752;5.220;2022-10-31T01:36:28;9.83;;;7.05;;
41456;SDS011;27197;51.752;5.220;2022-10-31T01:39:02;7.53;;;6.05;;
41456;SDS011;27197;51.752;5.220;2022-10-31T01:41:33;7.08;;;5.05;;
41456;SDS011;27197;51.752;5.220;2022-10-31T01:46:38;7.85;;;5.28;;
41456;SDS011;27197;51.752;5.220;2022-10-31T01:49:06;8.00;;;4.92;;
41456;SDS011;27197;51.752;5.220;2022-10-31T01:51:36;8.30;;;5.58;;
41456;SDS011;27197;51.752;5.220;2022-10-31T01:54:04;11.73;;;7.58;;
41456;SDS011;27197;51.752;5.220;2022-10-31T01:56:34;10.45;;;7.10;;
41456;SDS011;27197;51.752;5.220;2022-10-31T01:59:08;10.05;;;7.72;;
41456;SDS011;27197;51.752;5.220;2022-10-31T02:01:41;11.35;;;6.83;;
41456;SDS011;27197;51.752;5.220;2022-10-31T02:04:11;10.38;;;6.67;;
41456;SDS011;27197;51.752;5.220;2022-10-31T02:06:51;9.73;;;7.47;;
41456;SDS011;27197;51.752;5.220;2022-10-31T02:09:18;9.65;;;6.10;;
41456;SDS011;27197;51.752;5.220;2022-10-31T02:11:47;13.80;;;7.97;;
41456;SDS011;27197;51.752;5.220;2022-10-31T02:14:24;10.50;;;5.55;;
41456;SDS011;27197;51.752;5.220;2022-10-31T02:16:54;11.83;;;7.42;;
41456;SDS011;27197;51.752;5.220;2022-10-31T02:22:13;9.70;;;6.33;;
41456;SDS011;27197;51.752;5.220;2022-10-31T02:24:48;12.00;;;7.22;;
41456;SDS011;27197;51.752;5.220;2022-10-31T02:27:32;7.37;;;5.05;;
41456;SDS011;27197;51.752;5.220;2022-10-31T02:38:06;11.73;;;7.35;;
41456;SDS011;27197;51.752;5.220;2022-10-31T02:40:37;10.30;;;7.33;;
41456;SDS011;27197;51.752;5.220;2022-10-31T02:43:49;12.47;;;8.48;;
41456;SDS011;27197;51.752;5.220;2022-10-31T02:45:46;11.68;;;7.67;;
41456;SDS011;27197;51.752;5.220;2022-10-31T02:48:15;12.60;;;7.58;;
41456;SDS011;27197;51.752;5.220;2022-10-31T02:50:45;9.95;;;7.55;;
41456;SDS011;27197;51.752;5.220;2022-10-31T02:53:14;12.88;;;7.95;;
41456;SDS011;27197;51.752;5.220;2022-10-31T02:55:56;8.95;;;6.25;;
41456;SDS011;27197;51.752;5.220;2022-10-31T02:58:18;10.32;;;7.35;;
41456;SDS011;27197;51.752;5.220;2022-10-31T03:03:36;9.98;;;7.08;;
41456;SDS011;27197;51.752;5.220;2022-10-31T03:06:08;10.43;;;6.50;;
41456;SDS011;27197;51.752;5.220;2022-10-31T03:08:39;7.12;;;5.40;;
41456;SDS011;27197;51.752;5.220;2022-10-31T03:11:07;5.90;;;4.40;;
41456;SDS011;27197;51.752;5.220;2022-10-31T03:13:42;7.33;;;5.40;;
41456;SDS011;27197;51.752;5.220;2022-10-31T03:16:12;10.60;;;6.17;;
41456;SDS011;27197;51.752;5.220;2022-10-31T03:18:48;10.75;;;7.15;;
41456;SDS011;27197;51.752;5.220;2022-10-31T03:21:23;12.58;;;7.37;;
41456;SDS011;27197;51.752;5.220;2022-10-31T03:23:51;12.15;;;7.80;;
41456;SDS011;27197;51.752;5.220;2022-10-31T03:26:21;10.32;;;6.50;;
41456;SDS011;27197;51.752;5.220;2022-10-31T03:28:57;8.33;;;5.17;;
41456;SDS011;27197;51.752;5.220;2022-10-31T03:31:25;10.03;;;6.78;;
41456;SDS011;27197;51.752;5.220;2022-10-31T03:33:58;9.55;;;6.42;;
41456;SDS011;27197;51.752;5.220;2022-10-31T03:36:26;7.92;;;5.97;;
41456;SDS011;27197;51.752;5.220;2022-10-31T03:38:59;7.30;;;4.40;;
41456;SDS011;27197;51.752;5.220;2022-10-31T03:41:29;7.65;;;4.92;;
41456;SDS011;27197;51.752;5.220;2022-10-31T03:43:59;5.65;;;4.10;;
41456;SDS011;27197;51.752;5.220;2022-10-31T03:46:28;7.70;;;4.50;;
41456;SDS011;27197;51.752;5.220;2022-10-31T03:48:58;8.08;;;5.17;;
41456;SDS011;27197;51.752;5.220;2022-10-31T03:54:04;5.58;;;3.95;;
41456;SDS011;27197;51.752;5.220;2022-10-31T03:56:36;6.17;;;4.60;;
41456;SDS011;27197;51.752;5.220;2022-10-31T03:59:09;6.70;;;5.12;;
41456;SDS011;27197;51.752;5.220;2022-10-31T04:01:41;8.20;;;5.03;;
41456;SDS011;27197;51.752;5.220;2022-10-31T04:04:08;6.30;;;4.00;;
41456;SDS011;27197;51.752;5.220;2022-10-31T04:06:38;6.53;;;4.33;;
41456;SDS011;27197;51.752;5.220;2022-10-31T04:09:07;7.55;;;4.92;;
41456;SDS011;27197;51.752;5.220;2022-10-31T04:11:39;6.83;;;3.95;;
41456;SDS011;27197;51.752;5.220;2022-10-31T04:14:07;6.70;;;4.37;;
41456;SDS011;27197;51.752;5.220;2022-10-31T04:16:40;8.13;;;4.28;;
41456;SDS011;27197;51.752;5.220;2022-10-31T04:19:11;7.15;;;4.25;;
41456;SDS011;27197;51.752;5.220;2022-10-31T04:21:40;5.33;;;3.58;;
41456;SDS011;27197;51.752;5.220;2022-10-31T04:24:11;5.92;;;3.58;;
41456;SDS011;27197;51.752;5.220;2022-10-31T04:26:42;6.40;;;4.30;;
41456;SDS011;27197;51.752;5.220;2022-10-31T04:29:12;5.78;;;3.95;;
41456;SDS011;27197;51.752;5.220;2022-10-31T04:31:42;7.53;;;4.12;;
41456;SDS011;27197;51.752;5.220;2022-10-31T04:34:15;8.60;;;4.00;;
41456;SDS011;27197;51.752;5.220;2022-10-31T04:36:46;5.97;;;4.40;;
41456;SDS011;27197;51.752;5.220;2022-10-31T04:39:19;6.08;;;4.20;;
41456;SDS011;27197;51.752;5.220;2022-10-31T04:41:49;5.03;;;3.87;;
41456;SDS011;27197;51.752;5.220;2022-10-31T04:44:21;6.12;;;3.92;;
41456;SDS011;27197;51.752;5.220;2022-10-31T04:46:53;6.17;;;4.30;;
41456;SDS011;27197;51.752;5.220;2022-10-31T04:49:24;7.62;;;5.42;;
41456;SDS011;27197;51.752;5.220;2022-10-31T04:51:57;9.03;;;5.87;;
41456;SDS011;27197;51.752;5.220;2022-10-31T04:54:29;7.75;;;5.80;;
41456;SDS011;27197;51.752;5.220;2022-10-31T04:56:59;12.35;;;6.65;;
41456;SDS011;27197;51.752;5.220;2022-10-31T04:59:29;11.63;;;7.53;;
41456;SDS011;27197;51.752;5.220;2022-10-31T05:01:59;12.18;;;7.70;;
41456;SDS011;27197;51.752;5.220;2022-10-31T05:04:29;7.58;;;5.75;;
41456;SDS011;27197;51.752;5.220;2022-10-31T05:06:59;12.10;;;8.18;;
41456;SDS011;27197;51.752;5.220;2022-10-31T05:09:29;9.15;;;6.50;;
41456;SDS011;27197;51.752;5.220;2022-10-31T05:11:59;9.95;;;7.25;;
41456;SDS011;27197;51.752;5.220;2022-10-31T05:14:28;10.28;;;7.65;;
41456;SDS011;27197;51.752;5.220;2022-10-31T05:16:58;10.95;;;7.42;;
41456;SDS011;27197;51.752;5.220;2022-10-31T05:19:27;8.13;;;6.10;;
41456;SDS011;27197;51.752;5.220;2022-10-31T05:21:57;8.30;;;4.97;;
41456;SDS011;27197;51.752;5.220;2022-10-31T05:24:26;7.70;;;4.08;;
41456;SDS011;27197;51.752;5.220;2022-10-31T05:26:56;7.17;;;4.35;;
41456;SDS011;27197;51.752;5.220;2022-10-31T05:29:25;6.12;;;3.98;;
41456;SDS011;27197;51.752;5.220;2022-10-31T05:31:54;6.37;;;4.62;;
41456;SDS011;27197;51.752;5.220;2022-10-31T05:34:23;8.15;;;4.83;;
41456;SDS011;27197;51.752;5.220;2022-10-31T05:36:53;7.65;;;5.17;;
41456;SDS011;27197;51.752;5.220;2022-10-31T05:39:22;8.98;;;6.05;;
41456;SDS011;27197;51.752;5.220;2022-10-31T05:41:51;9.00;;;5.83;;
41456;SDS011;27197;51.752;5.220;2022-10-31T05:44:20;6.20;;;4.40;;
41456;SDS011;27197;51.752;5.220;2022-10-31T05:46:51;5.70;;;4.30;;
41456;SDS011;27197;51.752;5.220;2022-10-31T05:49:19;7.40;;;4.58;;
41456;SDS011;27197;51.752;5.220;2022-10-31T05:51:51;6.72;;;4.47;;
41456;SDS011;27197;51.752;5.220;2022-10-31T05:54:19;11.48;;;6.87;;
41456;SDS011;27197;51.752;5.220;2022-10-31T05:56:48;8.60;;;5.70;;
41456;SDS011;27197;51.752;5.220;2022-10-31T05:59:20;9.00;;;6.58;;
41456;SDS011;27197;51.752;5.220;2022-10-31T06:01:48;8.95;;;6.15;;
41456;SDS011;27197;51.752;5.220;2022-10-31T06:04:17;8.65;;;5.50;;
41456;SDS011;27197;51.752;5.220;2022-10-31T06:06:48;9.05;;;6.35;;
41456;SDS011;27197;51.752;5.220;2022-10-31T06:09:16;10.60;;;6.28;;
41456;SDS011;27197;51.752;5.220;2022-10-31T06:11:45;7.40;;;4.92;;
41456;SDS011;27197;51.752;5.220;2022-10-31T06:14:13;8.33;;;5.78;;
41456;SDS011;27197;51.752;5.220;2022-10-31T06:16:42;11.95;;;8.03;;
41456;SDS011;27197;51.752;5.220;2022-10-31T06:19:11;7.72;;;5.70;;
41456;SDS011;27197;51.752;5.220;2022-10-31T06:21:40;8.73;;;5.97;;
41456;SDS011;27197;51.752;5.220;2022-10-31T06:24:09;12.15;;;6.33;;
41456;SDS011;27197;51.752;5.220;2022-10-31T06:26:38;9.40;;;7.15;;
41456;SDS011;27197;51.752;5.220;2022-10-31T06:29:11;10.60;;;5.97;;
41456;SDS011;27197;51.752;5.220;2022-10-31T06:31:39;12.15;;;5.10;;
41456;SDS011;27197;51.752;5.220;2022-10-31T06:34:08;13.20;;;7.55;;
41456;SDS011;27197;51.752;5.220;2022-10-31T06:36:37;11.22;;;7.33;;
41456;SDS011;27197;51.752;5.220;2022-10-31T06:39:07;8.58;;;6.33;;
41456;SDS011;27197;51.752;5.220;2022-10-31T06:41:36;9.95;;;6.92;;
41456;SDS011;27197;51.752;5.220;2022-10-31T06:44:06;10.10;;;6.72;;
41456;SDS011;27197;51.752;5.220;2022-10-31T06:46:33;12.80;;;5.90;;
41456;SDS011;27197;51.752;5.220;2022-10-31T06:49:02;10.78;;;5.17;;
41456;SDS011;27197;51.752;5.220;2022-10-31T06:51:32;9.98;;;5.20;;
41456;SDS011;27197;51.752;5.220;2022-10-31T06:54:04;10.23;;;5.50;;
41456;SDS011;27197;51.752;5.220;2022-10-31T06:56:32;11.53;;;5.30;;
41456;SDS011;27197;51.752;5.220;2022-10-31T06:59:01;9.63;;;5.75;;
41456;SDS011;27197;51.752;5.220;2022-10-31T07:01:30;9.05;;;5.53;;
41456;SDS011;27197;51.752;5.220;2022-10-31T07:04:02;10.15;;;6.22;;
41456;SDS011;27197;51.752;5.220;2022-10-31T07:06:30;10.00;;;6.00;;
41456;SDS011;27197;51.752;5.220;2022-10-31T07:08:59;11.83;;;5.87;;
41456;SDS011;27197;51.752;5.220;2022-10-31T07:11:30;11.45;;;6.05;;
41456;SDS011;27197;51.752;5.220;2022-10-31T07:14:00;10.72;;;6.65;;
41456;SDS011;27197;51.752;5.220;2022-10-31T07:16:29;8.68;;;6.08;;
41456;SDS011;27197;51.752;5.220;2022-10-31T07:18:58;9.80;;;6.22;;
41456;SDS011;27197;51.752;5.220;2022-10-31T07:21:26;8.63;;;5.83;;
41456;SDS011;27197;51.752;5.220;2022-10-31T07:23:56;7.75;;;6.42;;
41456;SDS011;27197;51.752;5.220;2022-10-31T07:26:25;11.53;;;6.25;;
41456;SDS011;27197;51.752;5.220;2022-10-31T07:28:55;10.35;;;6.58;;
41456;SDS011;27197;51.752;5.220;2022-10-31T07:31:24;24.12;;;6.90;;
41456;SDS011;27197;51.752;5.220;2022-10-31T07:33:52;8.93;;;6.28;;
41456;SDS011;27197;51.752;5.220;2022-10-31T07:36:26;11.63;;;6.47;;
41456;SDS011;27197;51.752;5.220;2022-10-31T07:38:55;10.23;;;7.00;;
41456;SDS011;27197;51.752;5.220;2022-10-31T07:41:25;9.35;;;7.03;;
41456;SDS011;27197;51.752;5.220;2022-10-31T07:43:52;9.95;;;6.17;;
41456;SDS011;27197;51.752;5.220;2022-10-31T07:46:22;9.03;;;6.35;;
41456;SDS011;27197;51.752;5.220;2022-10-31T07:48:50;10.63;;;7.12;;
41456;SDS011;27197;51.752;5.220;2022-10-31T07:51:19;13.00;;;7.40;;
41456;SDS011;27197;51.752;5.220;2022-10-31T07:53:47;11.90;;;7.40;;
41456;SDS011;27197;51.752;5.220;2022-10-31T07:56:17;12.47;;;7.90;;
41456;SDS011;27197;51.752;5.220;2022-10-31T07:58:47;9.10;;;6.53;;
41456;SDS011;27197;51.752;5.220;2022-10-31T08:01:16;9.28;;;7.15;;
41456;SDS011;27197;51.752;5.220;2022-10-31T08:03:45;11.97;;;7.17;;
41456;SDS011;27197;51.752;5.220;2022-10-31T08:06:17;11.68;;;7.90;;
41456;SDS011;27197;51.752;5.220;2022-10-31T08:08:46;11.43;;;7.33;;
41456;SDS011;27197;51.752;5.220;2022-10-31T08:11:15;11.93;;;7.80;;
41456;SDS011;27197;51.752;5.220;2022-10-31T08:13:46;12.70;;;7.70;;
41456;SDS011;27197;51.752;5.220;2022-10-31T08:16:14;12.45;;;7.70;;
41456;SDS011;27197;51.752;5.220;2022-10-31T08:18:43;10.18;;;7.62;;
41456;SDS011;27197;51.752;5.220;2022-10-31T08:21:12;10.43;;;7.08;;
41456;SDS011;27197;51.752;5.220;2022-10-31T08:23:41;15.80;;;10.70;;
41456;SDS011;27197;51.752;5.220;2022-10-31T08:26:10;11.03;;;7.10;;
41456;SDS011;27197;51.752;5.220;2022-10-31T08:28:39;12.60;;;7.80;;
41456;SDS011;27197;51.752;5.220;2022-10-31T08:31:11;12.23;;;8.43;;
41456;SDS011;27197;51.752;5.220;2022-10-31T08:33:41;17.15;;;10.75;;
41456;SDS011;27197;51.752;5.220;2022-10-31T08:36:10;13.80;;;8.58;;
41456;SDS011;27197;51.752;5.220;2022-10-31T08:38:39;18.30;;;10.25;;
41456;SDS011;27197;51.752;5.220;2022-10-31T08:41:11;16.02;;;11.08;;
41456;SDS011;27197;51.752;5.220;2022-10-31T08:43:41;11.38;;;7.70;;
41456;SDS011;27197;51.752;5.220;2022-10-31T08:46:10;14.65;;;10.63;;
41456;SDS011;27197;51.752;5.220;2022-10-31T08:48:39;13.53;;;8.48;;
41456;SDS011;27197;51.752;5.220;2022-10-31T08:51:08;13.62;;;8.90;;
41456;SDS011;27197;51.752;5.220;2022-10-31T08:53:36;10.93;;;7.83;;
41456;SDS011;27197;51.752;5.220;2022-10-31T08:56:05;16.45;;;10.58;;
41456;SDS011;27197;51.752;5.220;2022-10-31T08:58:37;12.63;;;8.65;;
41456;SDS011;27197;51.752;5.220;2022-10-31T09:01:05;18.82;;;11.70;;
41456;SDS011;27197;51.752;5.220;2022-10-31T09:03:34;14.23;;;9.50;;
41456;SDS011;27197;51.752;5.220;2022-10-31T09:06:03;14.40;;;9.83;;
41456;SDS011;27197;51.752;5.220;2022-10-31T09:08:32;16.77;;;11.00;;
41456;SDS011;27197;51.752;5.220;2022-10-31T09:11:02;17.27;;;11.25;;
41456;SDS011;27197;51.752;5.220;2022-10-31T09:13:30;17.45;;;11.97;;
41456;SDS011;27197;51.752;5.220;2022-10-31T09:15:59;14.10;;;8.58;;
41456;SDS011;27197;51.752;5.220;2022-10-31T09:18:28;18.48;;;11.28;;
41456;SDS011;27197;51.752;5.220;2022-10-31T09:20:58;14.73;;;8.85;;
41456;SDS011;27197;51.752;5.220;2022-10-31T09:23:29;11.93;;;7.42;;
41456;SDS011;27197;51.752;5.220;2022-10-31T09:25:59;15.55;;;10.58;;
41456;SDS011;27197;51.752;5.220;2022-10-31T09:28:27;15.50;;;9.83;;
41456;SDS011;27197;51.752;5.220;2022-10-31T09:30:56;16.70;;;10.23;;
41456;SDS011;27197;51.752;5.220;2022-10-31T09:33:26;13.10;;;9.03;;
41456;SDS011;27197;51.752;5.220;2022-10-31T09:35:57;15.60;;;10.32;;
41456;SDS011;27197;51.752;5.220;2022-10-31T09:38:27;14.73;;;10.20;;
41456;SDS011;27197;51.752;5.220;2022-10-31T09:41:01;17.35;;;10.82;;
41456;SDS011;27197;51.752;5.220;2022-10-31T09:43:30;16.50;;;11.08;;
41456;SDS011;27197;51.752;5.220;2022-10-31T09:45:58;20.08;;;12.07;;
41456;SDS011;27197;51.752;5.220;2022-10-31T09:53:36;12.68;;;9.03;;
41456;SDS011;27197;51.752;5.220;2022-10-31T09:56:00;15.40;;;9.20;;
41456;SDS011;27197;51.752;5.220;2022-10-31T09:58:32;14.50;;;9.08;;
41456;SDS011;27197;51.752;5.220;2022-10-31T10:01:02;15.00;;;10.75;;
41456;SDS011;27197;51.752;5.220;2022-10-31T10:03:36;12.60;;;8.48;;
41456;SDS011;27197;51.752;5.220;2022-10-31T10:06:07;12.93;;;9.63;;
41456;SDS011;27197;51.752;5.220;2022-10-31T10:08:36;13.68;;;8.90;;
41456;SDS011;27197;51.752;5.220;2022-10-31T10:16:35;14.60;;;8.53;;
41456;SDS011;27197;51.752;5.220;2022-10-31T10:21:43;11.20;;;6.67;;
41456;SDS011;27197;51.752;5.220;2022-10-31T10:24:30;12.20;;;7.97;;
41456;SDS011;27197;51.752;5.220;2022-10-31T10:27:00;15.10;;;9.95;;
41456;SDS011;27197;51.752;5.220;2022-10-31T10:31:59;16.32;;;9.78;;
41456;SDS011;27197;51.752;5.220;2022-10-31T10:34:32;13.83;;;9.18;;
41456;SDS011;27197;51.752;5.220;2022-10-31T10:37:05;14.47;;;8.08;;
41456;SDS011;27197;51.752;5.220;2022-10-31T10:39:36;16.32;;;9.35;;
41456;SDS011;27197;51.752;5.220;2022-10-31T10:42:10;14.28;;;10.05;;
41456;SDS011;27197;51.752;5.220;2022-10-31T10:44:54;15.72;;;9.50;;
41456;SDS011;27197;51.752;5.220;2022-10-31T10:47:42;14.70;;;9.33;;
41456;SDS011;27197;51.752;5.220;2022-10-31T10:55:43;18.62;;;12.35;;
41456;SDS011;27197;51.752;5.220;2022-10-31T10:58:09;19.27;;;12.15;;
41456;SDS011;27197;51.752;5.220;2022-10-31T11:00:41;17.48;;;12.60;;
41456;SDS011;27197;51.752;5.220;2022-10-31T11:03:11;17.15;;;11.50;;
41456;SDS011;27197;51.752;5.220;2022-10-31T11:08:11;18.85;;;10.13;;
41456;SDS011;27197;51.752;5.220;2022-10-31T11:10:42;18.87;;;10.55;;
41456;SDS011;27197;51.752;5.220;2022-10-31T11:15:56;18.40;;;11.90;;
41456;SDS011;27197;51.752;5.220;2022-10-31T11:18:29;19.45;;;12.33;;
41456;SDS011;27197;51.752;5.220;2022-10-31T11:20:57;20.43;;;13.10;;
41456;SDS011;27197;51.752;5.220;2022-10-31T11:23:26;15.65;;;9.35;;
41456;SDS011;27197;51.752;5.220;2022-10-31T11:26:00;15.75;;;10.63;;
41456;SDS011;27197;51.752;5.220;2022-10-31T11:28:29;19.10;;;12.98;;
41456;SDS011;27197;51.752;5.220;2022-10-31T11:31:04;20.35;;;13.72;;
41456;SDS011;27197;51.752;5.220;2022-10-31T11:33:34;22.55;;;13.60;;
41456;SDS011;27197;51.752;5.220;2022-10-31T11:36:01;22.10;;;14.15;;
41456;SDS011;27197;51.752;5.220;2022-10-31T11:38:43;17.95;;;11.65;;
41456;SDS011;27197;51.752;5.220;2022-10-31T11:41:11;21.42;;;13.35;;
41456;SDS011;27197;51.752;5.220;2022-10-31T11:43:36;19.37;;;13.78;;
41456;SDS011;27197;51.752;5.220;2022-10-31T11:46:15;23.67;;;13.55;;
41456;SDS011;27197;51.752;5.220;2022-10-31T11:48:51;23.15;;;13.40;;
41456;SDS011;27197;51.752;5.220;2022-10-31T11:51:23;22.15;;;14.90;;
41456;SDS011;27197;51.752;5.220;2022-10-31T11:53:51;23.02;;;15.25;;
41456;SDS011;27197;51.752;5.220;2022-10-31T11:56:19;26.10;;;16.55;;
41456;SDS011;27197;51.752;5.220;2022-10-31T11:58:56;21.12;;;13.30;;
41456;SDS011;27197;51.752;5.220;2022-10-31T12:01:27;20.50;;;13.85;;
41456;SDS011;27197;51.752;5.220;2022-10-31T12:04:13;27.17;;;16.17;;
41456;SDS011;27197;51.752;5.220;2022-10-31T12:06:45;21.45;;;14.23;;
41456;SDS011;27197;51.752;5.220;2022-10-31T12:09:20;27.62;;;16.80;;
41456;SDS011;27197;51.752;5.220;2022-10-31T12:17:27;28.85;;;16.45;;
41456;SDS011;27197;51.752;5.220;2022-10-31T12:25:25;28.30;;;17.92;;
41456;SDS011;27197;51.752;5.220;2022-10-31T12:27:57;28.80;;;19.32;;
41456;SDS011;27197;51.752;5.220;2022-10-31T12:30:28;27.25;;;17.77;;
41456;SDS011;27197;51.752;5.220;2022-10-31T12:35:50;29.72;;;19.70;;
41456;SDS011;27197;51.752;5.220;2022-10-31T12:38:28;28.05;;;16.05;;
41456;SDS011;27197;51.752;5.220;2022-10-31T12:43:48;32.78;;;18.85;;
41456;SDS011;27197;51.752;5.220;2022-10-31T12:54:04;29.95;;;17.20;;
41456;SDS011;27197;51.752;5.220;2022-10-31T12:56:47;30.45;;;18.92;;
41456;SDS011;27197;51.752;5.220;2022-10-31T13:01:52;33.00;;;18.45;;
41456;SDS011;27197;51.752;5.220;2022-10-31T13:07:03;31.95;;;19.07;;
41456;SDS011;27197;51.752;5.220;2022-10-31T13:09:36;34.38;;;18.92;;
41456;SDS011;27197;51.752;5.220;2022-10-31T13:12:11;23.27;;;14.25;;
41456;SDS011;27197;51.752;5.220;2022-10-31T13:14:38;23.57;;;15.00;;
41456;SDS011;27197;51.752;5.220;2022-10-31T13:17:16;33.10;;;18.30;;
41456;SDS011;27197;51.752;5.220;2022-10-31T13:19:41;34.75;;;18.45;;
41456;SDS011;27197;51.752;5.220;2022-10-31T13:22:23;32.75;;;17.98;;
41456;SDS011;27197;51.752;5.220;2022-10-31T13:24:53;28.95;;;18.07;;
41456;SDS011;27197;51.752;5.220;2022-10-31T13:27:25;29.57;;;17.37;;
41456;SDS011;27197;51.752;5.220;2022-10-31T13:32:25;28.42;;;18.12;;
41456;SDS011;27197;51.752;5.220;2022-10-31T13:34:56;26.27;;;17.67;;
41456;SDS011;27197;51.752;5.220;2022-10-31T13:37:35;23.80;;;15.90;;
41456;SDS011;27197;51.752;5.220;2022-10-31T13:45:22;27.65;;;16.95;;
41456;SDS011;27197;51.752;5.220;2022-10-31T13:48:01;26.55;;;14.60;;
41456;SDS011;27197;51.752;5.220;2022-10-31T13:50:31;25.17;;;16.10;;
41456;SDS011;27197;51.752;5.220;2022-10-31T13:55:44;21.95;;;14.07;;
41456;SDS011;27197;51.752;5.220;2022-10-31T14:06:00;21.02;;;13.08;;
41456;SDS011;27197;51.752;5.220;2022-10-31T14:08:33;25.75;;;12.88;;
41456;SDS011;27197;51.752;5.220;2022-10-31T14:11:05;36.98;;;14.13;;
41456;SDS011;27197;51.752;5.220;2022-10-31T14:13:37;23.18;;;13.65;;
41456;SDS011;27197;51.752;5.220;2022-10-31T14:16:04;19.42;;;13.62;;
41456;SDS011;27197;51.752;5.220;2022-10-31T14:18:37;17.77;;;10.98;;
41456;SDS011;27197;51.752;5.220;2022-10-31T14:23:55;19.82;;;13.00;;
41456;SDS011;27197;51.752;5.220;2022-10-31T14:29:01;20.30;;;12.28;;
41456;SDS011;27197;51.752;5.220;2022-10-31T14:31:40;19.55;;;12.05;;
41456;SDS011;27197;51.752;5.220;2022-10-31T14:36:45;22.65;;;13.32;;
41456;SDS011;27197;51.752;5.220;2022-10-31T14:39:17;19.20;;;12.63;;
41456;SDS011;27197;51.752;5.220;2022-10-31T14:41:49;17.30;;;10.45;;
41456;SDS011;27197;51.752;5.220;2022-10-31T14:46:59;17.60;;;9.85;;
41456;SDS011;27197;51.752;5.220;2022-10-31T14:49:35;18.75;;;11.43;;
41456;SDS011;27197;51.752;5.220;2022-10-31T14:52:00;20.00;;;10.98;;
41456;SDS011;27197;51.752;5.220;2022-10-31T14:54:36;18.10;;;11.10;;
41456;SDS011;27197;51.752;5.220;2022-10-31T14:57:15;14.33;;;9.73;;
41456;SDS011;27197;51.752;5.220;2022-10-31T14:59:43;21.60;;;11.08;;
41456;SDS011;27197;51.752;5.220;2022-10-31T15:02:13;20.08;;;11.78;;
41456;SDS011;27197;51.752;5.220;2022-10-31T15:04:41;12.85;;;8.90;;
41456;SDS011;27197;51.752;5.220;2022-10-31T15:07:21;19.92;;;10.60;;
41456;SDS011;27197;51.752;5.220;2022-10-31T15:10:00;15.98;;;10.25;;
41456;SDS011;27197;51.752;5.220;2022-10-31T15:12:27;13.32;;;8.45;;
41456;SDS011;27197;51.752;5.220;2022-10-31T15:14:55;16.23;;;8.93;;
41456;SDS011;27197;51.752;5.220;2022-10-31T15:17:24;17.62;;;10.68;;
41456;SDS011;27197;51.752;5.220;2022-10-31T15:19:53;15.08;;;9.25;;
41456;SDS011;27197;51.752;5.220;2022-10-31T15:22:23;15.53;;;9.53;;
41456;SDS011;27197;51.752;5.220;2022-10-31T15:24:51;16.30;;;9.73;;
41456;SDS011;27197;51.752;5.220;2022-10-31T15:27:22;12.82;;;8.58;;
41456;SDS011;27197;51.752;5.220;2022-10-31T15:29:52;16.73;;;9.95;;
41456;SDS011;27197;51.752;5.220;2022-10-31T15:32:23;16.48;;;9.55;;
41456;SDS011;27197;51.752;5.220;2022-10-31T15:34:51;13.78;;;8.05;;
41456;SDS011;27197;51.752;5.220;2022-10-31T15:37:21;16.95;;;9.33;;
41456;SDS011;27197;51.752;5.220;2022-10-31T15:39:50;18.05;;;10.05;;
41456;SDS011;27197;51.752;5.220;2022-10-31T15:42:30;16.07;;;9.35;;
41456;SDS011;27197;51.752;5.220;2022-10-31T15:47:29;17.35;;;9.83;;
41456;SDS011;27197;51.752;5.220;2022-10-31T15:50:00;17.75;;;10.00;;
41456;SDS011;27197;51.752;5.220;2022-10-31T15:52:33;17.48;;;9.13;;
41456;SDS011;27197;51.752;5.220;2022-10-31T15:55:02;14.33;;;8.88;;
41456;SDS011;27197;51.752;5.220;2022-10-31T15:57:30;17.07;;;9.45;;
41456;SDS011;27197;51.752;5.220;2022-10-31T15:59:57;24.05;;;9.50;;
41456;SDS011;27197;51.752;5.220;2022-10-31T16:02:26;16.45;;;8.93;;
41456;SDS011;27197;51.752;5.220;2022-10-31T16:05:01;16.90;;;8.23;;
41456;SDS011;27197;51.752;5.220;2022-10-31T16:07:28;14.00;;;8.28;;
41456;SDS011;27197;51.752;5.220;2022-10-31T16:10:00;15.72;;;8.48;;
41456;SDS011;27197;51.752;5.220;2022-10-31T16:12:44;16.42;;;8.03;;
41456;SDS011;27197;51.752;5.220;2022-10-31T16:15:06;15.35;;;9.13;;
41456;SDS011;27197;51.752;5.220;2022-10-31T16:17:35;15.40;;;8.40;;
41456;SDS011;27197;51.752;5.220;2022-10-31T16:20:04;16.35;;;8.68;;
41456;SDS011;27197;51.752;5.220;2022-10-31T16:22:35;13.00;;;8.40;;
41456;SDS011;27197;51.752;5.220;2022-10-31T16:25:13;15.65;;;10.03;;
41456;SDS011;27197;51.752;5.220;2022-10-31T16:27:49;15.90;;;9.00;;
41456;SDS011;27197;51.752;5.220;2022-10-31T16:33:01;15.23;;;9.78;;
41456;SDS011;27197;51.752;5.220;2022-10-31T16:35:35;13.05;;;7.55;;
41456;SDS011;27197;51.752;5.220;2022-10-31T16:38:04;15.98;;;9.45;;
41456;SDS011;27197;51.752;5.220;2022-10-31T16:40:32;15.13;;;7.92;;
41456;SDS011;27197;51.752;5.220;2022-10-31T16:43:00;14.85;;;8.63;;
41456;SDS011;27197;51.752;5.220;2022-10-31T16:45:31;14.15;;;7.85;;